Time;durP1;ratioP1;P1;durP2;ratioP2;P2;SDS_P1;SDS_P2;PMS_P1;PMS_P2;Temp;Humidity;BMP_temperature;BMP_pressure;BME280_temperature;BME280_humidity;BME280_pressure;Samples;Min_cycle;Max_cycle;Signal;HPM_P1;HPM_P2
2022/12/04 00:00:53;;;;;;;3.30;3.00;;;19.60;40.90;;;;;;5112440;28;20437;-11
2022/12/04 00:03:19;;;;;;;3.92;3.25;;;19.70;41.00;;;;;;5112781;28;20091;-10
2022/12/04 00:05:45;;;;;;;3.53;2.95;;;19.60;40.90;;;;;;5112489;28;20048;-11
2022/12/04 00:08:10;;;;;;;3.55;3.25;;;19.70;41.00;;;;;;5112332;28;20071;-11
2022/12/04 00:10:42;;;;;;;3.13;2.78;;;19.70;41.00;;;;;;5112425;28;20127;-10
2022/12/04 00:13:08;;;;;;;3.50;3.20;;;19.60;40.90;;;;;;5112748;28;20052;-10
2022/12/04 00:15:33;;;;;;;3.15;2.80;;;19.70;41.00;;;;;;5112400;28;20427;-10
2022/12/04 00:17:59;;;;;;;4.15;3.10;;;19.70;41.00;;;;;;5112560;28;20134;-11
2022/12/04 00:20:25;;;;;;;3.28;2.95;;;19.70;41.00;;;;;;5112531;28;20055;-11
2022/12/04 00:22:51;;;;;;;3.72;3.35;;;19.70;40.90;;;;;;5112177;28;20058;-10
2022/12/04 00:25:17;;;;;;;3.13;2.83;;;19.70;41.00;;;;;;5112219;28;20147;-10
2022/12/04 00:27:43;;;;;;;3.30;3.00;;;19.70;40.90;;;;;;5112648;28;20083;-10
2022/12/04 00:30:09;;;;;;;3.08;2.80;;;19.70;40.90;;;;;;5112102;28;20472;-10
2022/12/04 00:32:35;;;;;;;3.50;2.90;;;19.60;41.40;;;;;;5112167;28;20054;-10
2022/12/04 00:35:02;;;;;;;4.00;3.03;;;19.60;40.90;;;;;;5113076;28;20047;-10
2022/12/04 00:37:27;;;;;;;3.22;2.90;;;19.70;41.00;;;;;;5096996;28;20051;-10
2022/12/04 00:39:53;;;;;;;4.28;3.28;;;19.70;40.90;;;;;;5115687;28;20396;-10
2022/12/04 00:42:19;;;;;;;3.20;2.90;;;19.60;40.90;;;;;;5112700;28;20067;-10
2022/12/04 00:44:44;;;;;;;4.38;3.42;;;19.70;40.90;;;;;;5115300;28;20056;-10
2022/12/04 00:47:10;;;;;;;3.85;2.90;;;19.70;40.90;;;;;;5115032;28;20086;-11
2022/12/04 00:49:35;;;;;;;3.47;3.03;;;19.60;40.90;;;;;;5115309;28;20134;-10
2022/12/04 00:52:01;;;;;;;4.03;3.42;;;19.70;41.00;;;;;;5115272;28;20055;-10
2022/12/04 00:54:27;;;;;;;3.42;3.10;;;19.60;40.90;;;;;;5115859;28;20062;-10
2022/12/04 00:56:52;;;;;;;3.25;2.95;;;19.70;40.90;;;;;;5115265;28;20488;-11
2022/12/04 00:59:18;;;;;;;4.60;3.35;;;19.70;40.90;;;;;;5115075;28;20043;-10
2022/12/04 01:01:43;;;;;;;3.72;3.28;;;19.70;40.90;;;;;;5115207;28;20047;-10
2022/12/04 01:04:09;;;;;;;3.53;3.22;;;19.70;40.90;;;;;;5115216;28;20055;-10
2022/12/04 01:06:35;;;;;;;4.00;3.17;;;19.70;40.90;;;;;;5115182;28;20073;-10
2022/12/04 01:09:03;;;;;;;3.47;3.17;;;19.70;40.90;;;;;;5114900;28;20435;-11
2022/12/04 01:11:29;;;;;;;3.85;3.42;;;19.60;40.80;;;;;;5115017;28;20043;-10
2022/12/04 01:13:56;;;;;;;3.65;3.10;;;19.60;40.90;;;;;;5115079;28;20051;-11
2022/12/04 01:16:26;;;;;;;3.30;3.00;;;19.70;41.50;;;;;;5115056;28;20081;-10
2022/12/04 01:18:52;;;;;;;3.13;2.58;;;19.60;40.90;;;;;;5114824;28;20051;-10
2022/12/04 01:21:19;;;;;;;3.97;3.20;;;19.70;40.90;;;;;;5114668;28;20101;-10
2022/12/04 01:23:44;;;;;;;3.80;3.40;;;19.70;40.90;;;;;;5114825;28;20408;-10
2022/12/04 01:26:11;;;;;;;3.40;2.92;;;19.60;40.80;;;;;;5114787;28;20055;-11
2022/12/04 01:28:36;;;;;;;3.85;3.40;;;19.60;40.80;;;;;;5114739;28;20055;-10
2022/12/04 01:31:05;;;;;;;3.80;2.95;;;19.60;40.80;;;;;;5115218;28;20055;-10
2022/12/04 01:33:33;;;;;;;4.10;3.30;;;19.60;40.80;;;;;;5114680;28;20043;-10
2022/12/04 01:36:00;;;;;;;4.00;3.45;;;19.60;40.80;;;;;;5114899;28;20499;-10
2022/12/04 01:38:26;;;;;;;4.30;3.83;;;19.70;40.80;;;;;;5114661;28;20074;-10
2022/12/04 01:40:53;;;;;;;3.53;3.10;;;19.70;40.80;;;;;;5114398;28;20047;-10
2022/12/04 01:43:19;;;;;;;4.20;3.50;;;19.70;40.80;;;;;;5114530;28;20574;-10
2022/12/04 01:45:46;;;;;;;3.55;3.15;;;19.70;40.70;;;;;;5114300;28;20059;-10
2022/12/04 01:48:20;;;;;;;4.20;3.65;;;19.70;40.70;;;;;;5114511;28;20130;-10
2022/12/04 01:50:48;;;;;;;3.80;3.40;;;19.70;40.80;;;;;;5111972;28;20497;-10
2022/12/04 01:53:14;;;;;;;3.83;3.25;;;19.70;40.80;;;;;;5114412;28;20059;-10
2022/12/04 01:55:40;;;;;;;3.22;2.92;;;19.70;40.80;;;;;;5114795;28;20504;-11
2022/12/04 01:58:08;;;;;;;4.50;3.80;;;19.70;40.70;;;;;;5114288;28;20071;-10
2022/12/04 02:00:34;;;;;;;3.80;3.40;;;19.70;40.70;;;;;;5113964;28;20051;-10
2022/12/04 02:03:00;;;;;;;3.90;3.35;;;19.70;40.80;;;;;;5114240;28;20047;-10
2022/12/04 02:05:25;;;;;;;4.00;3.60;;;19.70;40.70;;;;;;5114116;28;20137;-10
2022/12/04 02:07:58;;;;;;;3.95;3.53;;;19.70;40.80;;;;;;5114149;28;20065;-10
2022/12/04 02:10:49;;;;;;;3.63;3.33;;;19.70;40.80;;;;;;5114101;28;20051;-10
2022/12/04 02:13:24;;;;;;;3.83;3.35;;;19.70;40.70;;;;;;5114037;28;20055;-10
2022/12/04 02:15:57;;;;;;;5.28;3.78;;;19.70;40.70;;;;;;5114589;28;20134;-10
2022/12/04 02:18:56;;;;;;;3.92;3.53;;;19.70;40.70;;;;;;5113804;28;20411;-10
2022/12/04 02:21:31;;;;;;;3.83;3.30;;;19.70;40.70;;;;;;5114403;28;20081;-10
2022/12/04 02:23:57;;;;;;;4.18;3.22;;;19.70;40.70;;;;;;5114229;28;20377;-10
2022/12/04 02:26:28;;;;;;;4.60;3.42;;;19.70;40.70;;;;;;5113754;28;20113;-10
2022/12/04 02:29:12;;;;;;;;;;;19.60;40.70;;;;;;5114114;28;20117;-10
2022/12/04 02:31:46;;;;;;;5.38;4.03;;;19.70;40.70;;;;;;5113705;28;19915;-10
2022/12/04 02:34:27;;;;;;;3.97;3.58;;;19.60;40.60;;;;;;5113714;28;20051;-10
2022/12/04 02:37:03;;;;;;;4.88;3.50;;;19.70;40.70;;;;;;5113703;28;20063;-11
2022/12/04 02:39:50;;;;;;;4.30;3.67;;;19.70;40.70;;;;;;5113584;28;20047;-10
2022/12/04 02:42:25;;;;;;;4.00;3.60;;;19.70;40.70;;;;;;5113822;28;20047;-10
2022/12/04 02:45:03;;;;;;;4.00;3.60;;;19.70;40.80;;;;;;5113423;28;20051;-10
2022/12/04 02:47:31;;;;;;;5.55;3.85;;;19.70;40.70;;;;;;5113456;28;20090;-11
2022/12/04 02:50:08;;;;;;;4.05;3.65;;;19.60;40.70;;;;;;5112884;28;20130;-11
2022/12/04 02:52:40;;;;;;;3.85;3.45;;;19.60;40.70;;;;;;5113472;28;20079;-10
2022/12/04 02:55:17;;;;;;;3.90;3.50;;;19.60;40.70;;;;;;5113459;28;20080;-11
2022/12/04 02:57:47;;;;;;;4.25;3.65;;;19.70;40.70;;;;;;5112517;28;20127;-11
2022/12/04 03:00:13;;;;;;;4.43;3.50;;;19.70;40.70;;;;;;5113160;28;20044;-10
2022/12/04 03:02:52;;;;;;;5.63;4.22;;;19.60;40.70;;;;;;5113315;28;20417;-10
2022/12/04 03:05:21;;;;;;;4.50;3.45;;;19.60;40.70;;;;;;5113347;28;20071;-10
2022/12/04 03:07:56;;;;;;;3.85;3.45;;;19.60;40.70;;;;;;5113422;28;20071;-11
2022/12/04 03:10:32;;;;;;;5.00;3.85;;;19.60;40.70;;;;;;5113244;28;20082;-10
2022/12/04 03:13:06;;;;;;;4.40;3.83;;;19.60;40.70;;;;;;5095235;28;20100;-10
2022/12/04 03:15:40;;;;;;;4.55;3.88;;;19.70;40.80;;;;;;5113289;28;20058;-11
2022/12/04 03:18:16;;;;;;;4.35;3.90;;;19.60;40.70;;;;;;5112986;28;20063;-10
2022/12/04 03:20:46;;;;;;;3.67;3.28;;;19.60;40.70;;;;;;5112903;28;20058;-11
2022/12/04 03:23:25;;;;;;;4.82;3.88;;;19.60;40.70;;;;;;5112983;28;20144;-10
2022/12/04 03:25:55;;;;;;;4.50;3.72;;;19.60;40.70;;;;;;5113046;28;20096;-11
2022/12/04 03:28:54;;;;;;;4.25;3.85;;;19.60;40.70;;;;;;5112573;28;20063;-10
2022/12/04 03:31:31;;;;;;;4.63;4.07;;;19.60;40.70;;;;;;5112587;28;20048;-10
2022/12/04 03:34:01;;;;;;;4.20;3.60;;;19.70;40.70;;;;;;5113256;28;20091;-10
2022/12/04 03:36:33;;;;;;;4.55;3.60;;;19.70;40.70;;;;;;5112882;28;20522;-10
2022/12/04 03:39:02;;;;;;;4.40;4.00;;;19.70;40.70;;;;;;5112630;28;20048;-11
2022/12/04 03:41:45;;;;;;;4.25;3.85;;;19.70;40.70;;;;;;5112657;28;20047;-10
2022/12/04 03:44:13;;;;;;;4.70;4.10;;;19.60;40.70;;;;;;5112823;28;20493;-10
2022/12/04 03:47:18;;;;;;;4.38;3.72;;;19.60;41.20;;;;;;5112672;28;20071;-10
2022/12/04 03:49:52;;;;;;;4.45;3.72;;;19.60;40.70;;;;;;5095642;28;20051;-10
2022/12/04 03:52:39;;;;;;;3.83;3.53;;;19.60;40.70;;;;;;5112501;28;20489;-10
2022/12/04 03:55:28;;;;;;;4.55;3.78;;;19.60;40.70;;;;;;5094252;28;20051;-10
2022/12/04 03:58:01;;;;;;;4.65;3.65;;;19.60;40.70;;;;;;5112253;28;20527;-11
2022/12/04 04:00:29;;;;;;;4.35;3.95;;;19.60;40.70;;;;;;5112501;28;20173;-10
2022/12/04 04:03:19;;;;;;;4.10;3.42;;;19.60;40.70;;;;;;5112445;28;20143;-10
2022/12/04 04:05:50;;;;;;;4.63;3.92;;;19.60;40.70;;;;;;5112575;28;20476;-10
2022/12/04 04:08:28;;;;;;;4.80;4.30;;;19.60;40.70;;;;;;5112352;28;20147;-10
2022/12/04 04:11:06;;;;;;;4.43;3.90;;;19.60;40.70;;;;;;5116100;28;20048;-10
2022/12/04 04:25:02;;;;;;;5.63;3.83;;;19.60;40.70;;;;;;5115998;28;20532;-10
2022/12/04 04:27:28;;;;;;;4.70;4.20;;;19.60;40.70;;;;;;5115523;28;20485;-11
2022/12/04 04:29:53;;;;;;;4.78;4.28;;;19.60;40.70;;;;;;5115835;28;20054;-10
2022/12/04 04:32:39;;;;;;;4.65;4.05;;;19.60;40.70;;;;;;5115426;28;20055;-10
2022/12/04 04:35:21;;;;;;;4.45;3.97;;;19.60;40.70;;;;;;5115851;28;20062;-10
2022/12/04 04:37:56;;;;;;;4.63;4.15;;;19.60;40.70;;;;;;5115142;28;20549;-10
2022/12/04 04:40:44;;;;;;;3.95;3.55;;;19.60;40.70;;;;;;5115838;28;20395;-11
2022/12/04 04:43:25;;;;;;;4.70;4.07;;;19.60;40.60;;;;;;5115613;28;20503;-10
2022/12/04 04:45:57;;;;;;;4.35;3.92;;;19.60;40.60;;;;;;5115446;28;20051;-11
2022/12/04 04:48:38;;;;;;;3.90;3.50;;;19.60;40.60;;;;;;5115445;28;20060;-11
2022/12/04 04:51:04;;;;;;;4.50;3.80;;;19.60;41.20;;;;;;5115709;28;20396;-10
2022/12/04 04:53:37;;;;;;;4.60;3.88;;;19.60;40.60;;;;;;5115662;28;20051;-10
2022/12/04 04:56:05;;;;;;;4.82;4.13;;;19.60;40.70;;;;;;5115310;28;20055;-11
2022/12/04 04:58:31;;;;;;;4.60;3.97;;;19.60;40.70;;;;;;5115243;28;20408;-10
2022/12/04 05:01:00;;;;;;;4.15;3.75;;;19.60;40.60;;;;;;5114962;28;20045;-10
2022/12/04 05:03:27;;;;;;;4.80;4.25;;;19.60;40.60;;;;;;5115489;28;20047;-10
2022/12/04 05:05:52;;;;;;;4.80;4.30;;;19.60;40.60;;;;;;5115223;28;20545;-10
2022/12/04 05:08:18;;;;;;;4.45;4.00;;;19.60;40.60;;;;;;5114817;28;20051;-10
2022/12/04 05:10:44;;;;;;;4.20;3.80;;;19.60;40.60;;;;;;5115056;28;20097;-10
2022/12/04 05:13:13;;;;;;;4.82;4.43;;;19.60;40.60;;;;;;5115338;28;20051;-10
2022/12/04 05:15:39;;;;;;;5.10;4.60;;;19.60;40.60;;;;;;5114958;28;20051;-10
2022/12/04 05:18:06;;;;;;;4.18;3.78;;;19.60;40.60;;;;;;5115103;28;20138;-11
2022/12/04 05:20:32;;;;;;;5.28;4.28;;;19.60;40.60;;;;;;5114096;28;20073;-10
2022/12/04 05:22:57;;;;;;;4.25;3.85;;;19.60;40.60;;;;;;5114809;28;20052;-10
2022/12/04 05:25:23;;;;;;;5.10;4.22;;;19.60;40.60;;;;;;5115138;28;20055;-10
2022/12/04 05:27:49;;;;;;;4.43;3.80;;;19.60;41.20;;;;;;5114734;28;20055;-11
2022/12/04 05:30:16;;;;;;;4.90;4.40;;;19.60;40.60;;;;;;5114750;28;20556;-10
2022/12/04 05:32:41;;;;;;;5.57;4.72;;;19.60;40.60;;;;;;5115170;28;20102;-11
2022/12/04 05:35:08;;;;;;;5.22;4.43;;;19.60;40.60;;;;;;5114694;28;20082;-10
2022/12/04 05:37:36;;;;;;;5.60;4.70;;;19.60;40.60;;;;;;5114494;28;20056;-10
2022/12/04 05:40:04;;;;;;;4.85;4.35;;;19.60;40.60;;;;;;5114813;28;20099;-10
2022/12/04 05:42:30;;;;;;;4.90;3.97;;;19.60;41.20;;;;;;5115072;28;20112;-11
2022/12/04 05:44:56;;;;;;;4.90;4.40;;;19.60;40.70;;;;;;5114499;28;20047;-10
2022/12/04 05:47:21;;;;;;;4.88;4.20;;;19.60;40.70;;;;;;5114269;28;20052;-11
2022/12/04 05:49:47;;;;;;;5.05;4.50;;;19.60;40.60;;;;;;5114652;28;20079;-10
2022/12/04 05:52:12;;;;;;;4.88;4.22;;;19.60;40.60;;;;;;5114372;28;20051;-10
2022/12/04 05:54:39;;;;;;;4.70;4.20;;;19.60;40.60;;;;;;5114599;28;20053;-10
2022/12/04 05:57:05;;;;;;;5.85;4.55;;;19.60;41.20;;;;;;5114261;28;20064;-11
2022/12/04 05:59:30;;;;;;;5.00;4.40;;;19.60;40.60;;;;;;5114107;28;20067;-10
2022/12/04 06:01:56;;;;;;;4.55;3.92;;;19.60;40.60;;;;;;5114317;28;20048;-10
2022/12/04 06:04:22;;;;;;;4.75;4.20;;;19.60;40.60;;;;;;5114033;28;20099;-10
2022/12/04 06:06:48;;;;;;;4.78;4.32;;;19.60;40.60;;;;;;5114077;28;20048;-10
2022/12/04 06:09:13;;;;;;;4.65;4.00;;;19.60;40.60;;;;;;5113780;28;20060;-11
2022/12/04 06:11:40;;;;;;;5.80;4.75;;;19.60;40.60;;;;;;5114354;28;20065;-10
2022/12/04 06:14:09;;;;;;;5.03;4.47;;;19.60;40.60;;;;;;5113841;28;20073;-10
2022/12/04 06:16:40;;;;;;;5.75;5.00;;;19.60;40.60;;;;;;5114018;28;20083;-10
2022/12/04 06:19:10;;;;;;;4.95;4.30;;;19.60;40.60;;;;;;5114206;28;20047;-10
2022/12/04 06:21:38;;;;;;;4.32;3.83;;;19.60;40.60;;;;;;5113777;28;20519;-10
2022/12/04 06:24:05;;;;;;;4.95;4.45;;;19.60;40.60;;;;;;5113798;28;20055;-10
2022/12/04 06:26:30;;;;;;;4.70;4.20;;;19.60;40.60;;;;;;5113857;28;20051;-10
2022/12/04 06:28:58;;;;;;;5.45;3.83;;;19.60;40.50;;;;;;5113836;28;20471;-10
2022/12/04 06:31:25;;;;;;;5.07;4.50;;;19.60;40.60;;;;;;5113691;28;20059;-10
2022/12/04 06:33:53;;;;;;;5.30;4.60;;;19.60;40.60;;;;;;5114029;28;20080;-10
2022/12/04 06:36:20;;;;;;;5.25;4.10;;;19.60;40.60;;;;;;5113626;28;20047;-10
2022/12/04 06:38:47;;;;;;;4.70;4.07;;;19.60;40.60;;;;;;5113697;28;20422;-10
2022/12/04 06:41:15;;;;;;;5.15;4.55;;;19.60;40.60;;;;;;5113515;28;20046;-10
2022/12/04 06:43:41;;;;;;;5.75;4.35;;;19.60;40.60;;;;;;5114065;28;20059;-10
2022/12/04 06:46:10;;;;;;;4.93;4.43;;;19.60;40.60;;;;;;5113519;28;20051;-10
2022/12/04 06:48:37;;;;;;;4.80;3.97;;;19.60;40.60;;;;;;5113559;28;20105;-10
2022/12/04 06:51:09;;;;;;;4.93;4.15;;;19.60;40.60;;;;;;5113549;28;20047;-10
2022/12/04 06:53:35;;;;;;;5.53;4.70;;;19.60;40.60;;;;;;5113576;28;20051;-10
2022/12/04 06:56:04;;;;;;;5.03;4.53;;;19.60;40.60;;;;;;5113404;28;20104;-10
2022/12/04 06:58:30;;;;;;;5.32;4.53;;;19.60;40.60;;;;;;5104541;28;20052;-11
2022/12/04 07:00:56;;;;;;;4.60;4.20;;;19.60;40.60;;;;;;5092887;28;20458;-10
2022/12/04 07:03:23;;;;;;;4.57;4.18;;;19.60;40.60;;;;;;5092955;28;20098;-10
2022/12/04 07:05:49;;;;;;;5.22;4.70;;;19.60;40.60;;;;;;5092825;28;20048;-10
2022/12/04 07:08:15;;;;;;;4.78;4.28;;;19.60;40.50;;;;;;5093067;28;20484;-11
2022/12/04 07:10:41;;;;;;;4.38;3.97;;;19.60;40.50;;;;;;5092621;28;20048;-10
2022/12/04 07:13:07;;;;;;;5.07;4.25;;;19.60;40.60;;;;;;5092849;28;20131;-10
2022/12/04 07:15:35;;;;;;;5.05;4.45;;;19.60;40.60;;;;;;5092768;28;20472;-10
2022/12/04 07:18:02;;;;;;;5.10;4.28;;;19.60;40.60;;;;;;5092657;28;20044;-10
2022/12/04 07:20:28;;;;;;;4.68;4.18;;;19.60;40.50;;;;;;5092636;28;20048;-10
2022/12/04 07:22:54;;;;;;;4.60;4.00;;;19.60;40.60;;;;;;5092727;28;20044;-10
2022/12/04 07:25:19;;;;;;;5.50;4.55;;;19.60;40.60;;;;;;5092871;28;20059;-10
2022/12/04 07:27:45;;;;;;;6.85;5.10;;;19.60;40.60;;;;;;5092931;28;20059;-11
2022/12/04 07:30:11;;;;;;;5.03;4.50;;;19.60;40.60;;;;;;5092436;28;20524;-11
2022/12/04 07:32:38;;;;;;;4.78;4.28;;;19.60;40.60;;;;;;5074847;28;20077;-10
2022/12/04 07:35:05;;;;;;;5.85;4.85;;;19.60;40.60;;;;;;5092530;28;20071;-10
2022/12/04 07:37:34;;;;;;;4.95;4.30;;;19.60;40.50;;;;;;5092459;28;20063;-10
2022/12/04 07:40:03;;;;;;;5.65;4.95;;;19.60;40.50;;;;;;5092444;28;20108;-10
2022/12/04 07:42:28;;;;;;;5.63;4.32;;;19.60;40.50;;;;;;5092390;28;20059;-10
2022/12/04 07:44:54;;;;;;;5.13;4.38;;;19.60;40.50;;;;;;5094200;28;20047;-10
2022/12/04 07:47:20;;;;;;;5.25;4.60;;;19.60;40.50;;;;;;5095850;28;20083;-10
2022/12/04 07:49:45;;;;;;;4.65;4.18;;;19.60;40.50;;;;;;5095674;28;20051;-10
2022/12/04 07:52:11;;;;;;;5.70;4.68;;;19.60;40.50;;;;;;5095982;28;20105;-10
2022/12/04 07:54:36;;;;;;;4.85;3.95;;;19.60;40.50;;;;;;5096077;28;20059;-10
2022/12/04 07:57:02;;;;;;;5.07;4.55;;;19.60;40.50;;;;;;5095641;28;20055;-11
2022/12/04 07:59:28;;;;;;;5.35;4.38;;;19.60;40.40;;;;;;5095618;28;20051;-10
2022/12/04 08:01:53;;;;;;;5.05;4.35;;;19.70;40.50;;;;;;5095735;28;20060;-10
2022/12/04 08:04:19;;;;;;;5.28;4.30;;;19.60;40.40;;;;;;5095947;28;20079;-10
2022/12/04 08:06:44;;;;;;;5.65;4.68;;;19.60;40.50;;;;;;5095580;28;20051;-11
2022/12/04 08:09:10;;;;;;;5.22;4.72;;;19.60;40.50;;;;;;5095910;28;20374;-10
2022/12/04 08:11:36;;;;;;;5.63;4.40;;;19.60;40.60;;;;;;5095568;28;20044;-10
2022/12/04 08:14:04;;;;;;;4.60;4.20;;;19.60;40.50;;;;;;5095687;28;20052;-10
2022/12/04 08:16:31;;;;;;;4.85;4.28;;;19.60;40.50;;;;;;5095533;28;20159;-10
2022/12/04 08:18:57;;;;;;;4.93;4.43;;;19.60;40.50;;;;;;5095326;28;20051;-10
2022/12/04 08:21:26;;;;;;;5.15;4.50;;;19.60;40.50;;;;;;5095347;28;20048;-11
2022/12/04 08:23:53;;;;;;;4.88;4.28;;;19.60;40.50;;;;;;5095392;28;20401;-11
2022/12/04 08:26:21;;;;;;;6.03;5.43;;;19.60;40.50;;;;;;5095592;28;20485;-10
2022/12/04 08:28:47;;;;;;;4.80;4.30;;;19.60;40.40;;;;;;5095292;28;20048;-11
2022/12/04 08:31:16;;;;;;;5.13;4.63;;;19.60;40.50;;;;;;5095295;28;20083;-10
2022/12/04 08:33:43;;;;;;;5.32;4.78;;;19.60;40.40;;;;;;5095344;28;20939;-10
2022/12/04 08:36:12;;;;;;;5.85;4.75;;;19.60;40.40;;;;;;5095215;28;20048;-10
2022/12/04 08:38:38;;;;;;;4.90;4.40;;;19.60;40.40;;;;;;5095182;28;20055;-11
2022/12/04 08:41:06;;;;;;;5.03;4.43;;;19.60;41.00;;;;;;5095087;28;20512;-10
2022/12/04 08:43:31;;;;;;;6.20;5.13;;;19.60;40.40;;;;;;5095407;28;20412;-11
2022/12/04 08:46:02;;;;;;;5.45;4.72;;;19.60;40.40;;;;;;5095014;28;20043;-10
2022/12/04 08:48:28;;;;;;;5.30;4.75;;;19.60;40.40;;;;;;5095064;28;20056;-11
2022/12/04 08:50:54;;;;;;;5.70;4.95;;;19.60;40.40;;;;;;5094909;28;20044;-11
2022/12/04 08:53:21;;;;;;;5.65;4.75;;;19.60;40.40;;;;;;5094939;28;20048;-11
2022/12/04 08:55:47;;;;;;;5.80;5.20;;;19.60;40.40;;;;;;5092920;28;20055;-10
2022/12/04 08:58:13;;;;;;;5.15;4.50;;;19.60;40.40;;;;;;5094836;28;20052;-10
2022/12/04 09:00:38;;;;;;;5.40;4.75;;;19.60;40.90;;;;;;5094887;28;20489;-10
2022/12/04 09:03:04;;;;;;;5.43;4.93;;;19.60;40.40;;;;;;5094839;28;20135;-10
2022/12/04 09:05:30;;;;;;;6.20;5.25;;;19.60;40.40;;;;;;5094812;28;20052;-10
2022/12/04 09:07:56;;;;;;;5.93;4.75;;;19.60;40.30;;;;;;5094555;28;20051;-11
2022/12/04 09:10:22;;;;;;;5.88;5.15;;;19.60;40.40;;;;;;5094743;28;20447;-10
2022/12/04 09:12:48;;;;;;;5.70;4.70;;;19.60;40.40;;;;;;5094689;28;20048;-11
2022/12/04 09:15:14;;;;;;;5.82;4.82;;;19.60;40.40;;;;;;5094939;28;20060;-10
2022/12/04 09:17:40;;;;;;;6.63;5.40;;;19.60;40.30;;;;;;5094966;28;20101;-11
2022/12/04 09:20:08;;;;;;;6.35;5.43;;;19.60;40.40;;;;;;5094438;28;20044;-10
2022/12/04 09:22:35;;;;;;;5.80;5.20;;;19.60;40.30;;;;;;5094717;28;20073;-10
2022/12/04 09:25:03;;;;;;;6.00;5.15;;;19.60;40.40;;;;;;5094462;28;20093;-10
2022/12/04 09:27:30;;;;;;;6.28;5.45;;;19.60;40.30;;;;;;5094244;28;20052;-10
2022/12/04 09:29:55;;;;;;;5.30;4.80;;;19.70;40.90;;;;;;5094146;28;20086;-11
2022/12/04 09:32:21;;;;;;;6.20;5.57;;;19.60;40.30;;;;;;5094217;28;20075;-10
2022/12/04 09:34:47;;;;;;;6.65;5.45;;;19.60;40.30;;;;;;5094566;28;20393;-10
2022/12/04 09:37:13;;;;;;;5.35;4.35;;;19.60;40.40;;;;;;5094412;28;20044;-11
2022/12/04 09:39:38;;;;;;;5.85;5.25;;;19.60;40.30;;;;;;5094394;28;20056;-10
2022/12/04 09:42:18;;;;;;;5.50;4.80;;;19.60;40.40;;;;;;5094384;28;20106;-10
2022/12/04 09:44:49;;;;;;;5.72;5.07;;;19.60;40.40;;;;;;5094014;28;20052;-10
2022/12/04 09:47:42;;;;;;;5.40;4.90;;;19.60;40.30;;;;;;5094057;28;20048;-10
2022/12/04 09:50:52;;;;;;;6.60;5.68;;;19.60;40.30;;;;;;5093967;28;20524;-10
2022/12/04 09:53:25;;;;;;;5.57;5.00;;;19.70;40.90;;;;;;4992323;28;20500;-11
2022/12/04 09:55:59;;;;;;;5.00;4.50;;;19.60;40.30;;;;;;4992223;28;20057;-11
2022/12/04 09:58:38;;;;;;;6.55;5.55;;;19.70;40.30;;;;;;5048498;28;20054;-10
2022/12/04 10:01:04;;;;;;;5.65;4.50;;;19.70;40.30;;;;;;5093894;28;20080;-10
2022/12/04 10:03:30;;;;;;;5.75;5.13;;;19.70;40.20;;;;;;5093764;28;20052;-10
2022/12/04 10:06:14;;;;;;;6.82;5.40;;;19.70;40.20;;;;;;5093666;28;20061;-10
2022/12/04 10:08:42;;;;;;;5.43;4.88;;;19.70;40.20;;;;;;5093769;28;20097;-10
2022/12/04 10:11:23;;;;;;;6.60;5.60;;;19.70;40.20;;;;;;5094000;28;20047;-10
2022/12/04 10:14:09;;;;;;;5.82;5.22;;;19.70;40.30;;;;;;5094117;28;20058;-10
2022/12/04 10:17:13;;;;;;;5.43;4.63;;;19.70;40.30;;;;;;5093560;28;20052;-11
2022/12/04 10:19:57;;;;;;;5.57;4.97;;;19.70;40.20;;;;;;5038364;28;20044;-10
2022/12/04 10:22:41;;;;;;;5.57;4.95;;;19.70;40.20;;;;;;5093731;28;20595;-10
2022/12/04 10:25:13;;;;;;;6.25;5.32;;;19.70;40.20;;;;;;5093900;28;20063;-10
2022/12/04 10:27:56;;;;;;;6.47;5.45;;;19.70;40.20;;;;;;5093789;28;20375;-11
2022/12/04 10:30:25;;;;;;;6.35;4.97;;;19.70;40.20;;;;;;5093521;28;20413;-10
2022/12/04 10:33:03;;;;;;;5.07;4.57;;;19.70;40.80;;;;;;5093688;28;20049;-11
2022/12/04 10:35:32;;;;;;;7.15;5.68;;;19.70;40.20;;;;;;5093447;28;20078;-10
2022/12/04 10:38:13;;;;;;;5.60;5.00;;;19.70;40.20;;;;;;5093323;28;20421;-11
2022/12/04 10:40:50;;;;;;;6.28;5.32;;;19.70;40.20;;;;;;5093271;28;20094;-10
2022/12/04 10:43:33;;;;;;;5.30;4.43;;;19.70;40.20;;;;;;5093584;28;20048;-10
2022/12/04 10:45:59;;;;;;;6.07;5.47;;;19.70;40.20;;;;;;5093071;28;20134;-10
2022/12/04 10:48:35;;;;;;;6.13;5.07;;;19.70;40.20;;;;;;5092869;28;20134;-11
2022/12/04 10:51:01;;;;;;;5.97;5.25;;;19.70;40.20;;;;;;5093100;28;20052;-10
2022/12/04 10:53:34;;;;;;;5.65;4.85;;;19.70;40.20;;;;;;5093060;28;20062;-11
2022/12/04 10:56:32;;;;;;;6.43;5.28;;;19.70;40.20;;;;;;5093064;28;20052;-11
2022/12/04 10:59:02;;;;;;;7.50;5.90;;;19.70;40.20;;;;;;5035888;28;20477;-10
2022/12/04 11:01:30;;;;;;;5.80;5.20;;;19.70;40.20;;;;;;5093265;28;20055;-10
2022/12/04 11:04:06;;;;;;;5.75;5.10;;;19.60;40.20;;;;;;5092918;28;20063;-10
2022/12/04 11:06:32;;;;;;;6.75;5.32;;;19.70;40.30;;;;;;5092869;28;20056;-11
2022/12/04 11:08:59;;;;;;;6.82;5.45;;;19.70;40.30;;;;;;5092734;28;20493;-10
2022/12/04 11:11:30;;;;;;;6.78;5.35;;;19.70;40.30;;;;;;5092855;28;20052;-10
2022/12/04 11:14:06;;;;;;;6.55;5.25;;;19.70;40.20;;;;;;5092879;28;20086;-10
2022/12/04 11:16:37;;;;;;;6.53;5.20;;;19.70;40.20;;;;;;5092725;28;20093;-10
2022/12/04 11:19:22;;;;;;;6.07;5.15;;;19.70;40.20;;;;;;5091621;28;20052;-10
2022/12/04 11:21:49;;;;;;;6.20;5.60;;;19.70;40.20;;;;;;5092545;28;20572;-10
2022/12/04 11:24:41;;;;;;;5.82;5.22;;;19.70;40.20;;;;;;5092988;28;20052;-10
2022/12/04 11:27:38;;;;;;;5.88;5.05;;;19.70;40.60;;;;;;5088144;28;20048;-10
2022/12/04 11:30:14;;;;;;;6.05;5.03;;;19.60;40.10;;;;;;5079102;28;20528;-10
2022/12/04 11:32:40;;;;;;;6.72;5.47;;;19.60;40.20;;;;;;5092637;28;20048;-10
2022/12/04 11:35:27;;;;;;;5.50;4.78;;;19.70;40.30;;;;;;5092510;28;20412;-10
2022/12/04 11:37:57;;;;;;;6.68;5.55;;;19.60;40.20;;;;;;5092509;28;20068;-10
2022/12/04 11:40:25;;;;;;;6.03;5.40;;;19.60;40.20;;;;;;5092672;28;20048;-10
2022/12/04 11:43:12;;;;;;;5.65;5.03;;;19.70;40.30;;;;;;5092483;28;20040;-10
2022/12/04 11:45:39;;;;;;;6.25;5.30;;;19.60;40.20;;;;;;5092296;28;20058;-10
2022/12/04 11:48:17;;;;;;;5.63;5.00;;;19.60;40.70;;;;;;5092223;28;20082;-11
2022/12/04 11:51:04;;;;;;;5.47;4.97;;;19.60;40.20;;;;;;5092428;28;20044;-11
2022/12/04 11:53:48;;;;;;;7.03;6.18;;;19.60;40.20;;;;;;5092659;28;20135;-10
2022/12/04 11:56:40;;;;;;;6.93;5.82;;;19.60;40.20;;;;;;5092119;28;20060;-11
2022/12/04 11:59:18;;;;;;;6.47;4.97;;;19.60;40.20;;;;;;5092122;28;20143;-10
2022/12/04 12:02:01;;;;;;;6.90;5.63;;;19.60;40.20;;;;;;5092166;28;20059;-10
2022/12/04 12:04:45;;;;;;;5.85;5.15;;;19.60;40.20;;;;;;5092103;28;20408;-10
2022/12/04 12:07:36;;;;;;;6.50;5.70;;;19.60;40.20;;;;;;5092037;28;20083;-10
2022/12/04 12:10:08;;;;;;;;;;;19.60;40.20;;;;;;5092870;28;20091;-10
2022/12/04 12:13:06;;;;;;;6.75;5.45;;;19.60;40.30;;;;;;5092069;28;19916;-11
2022/12/04 12:15:34;;;;;;;6.43;4.93;;;19.60;40.30;;;;;;5091704;28;20532;-10
2022/12/04 12:18:34;;;;;;;6.95;5.65;;;19.60;40.30;;;;;;5092259;28;20074;-10
2022/12/04 12:21:12;;;;;;;6.05;5.45;;;19.60;40.20;;;;;;5091825;28;20048;-11
2022/12/04 12:23:50;;;;;;;6.88;5.80;;;19.60;40.20;;;;;;5091906;28;20044;-10
2022/12/04 12:26:23;;;;;;;5.63;5.00;;;19.60;40.20;;;;;;5091941;28;20052;-10
2022/12/04 12:29:09;;;;;;;5.97;5.35;;;19.60;40.30;;;;;;5091769;28;20091;-10
2022/12/04 12:32:06;;;;;;;6.90;5.82;;;19.60;40.20;;;;;;5094714;28;20048;-10
2022/12/04 12:34:36;;;;;;;6.65;5.47;;;19.60;40.20;;;;;;5095261;28;20505;-10
2022/12/04 12:37:26;;;;;;;6.95;5.60;;;19.60;40.20;;;;;;5095237;28;20044;-11
2022/12/04 12:40:08;;;;;;;7.25;5.57;;;19.60;40.20;;;;;;5094975;28;20403;-10
2022/12/04 12:42:47;;;;;;;6.60;4.93;;;19.60;40.20;;;;;;5095238;28;20058;-11
2022/12/04 12:45:25;;;;;;;6.57;5.53;;;19.60;40.80;;;;;;5095651;28;20097;-10
2022/12/04 12:47:55;;;;;;;6.70;5.72;;;19.60;40.20;;;;;;5095109;28;20152;-10
2022/12/04 12:50:27;;;;;;;6.53;5.53;;;19.60;40.20;;;;;;5094918;28;20469;-10
2022/12/04 12:52:55;;;;;;;6.50;5.38;;;19.60;40.20;;;;;;5094961;28;20087;-10
2022/12/04 12:55:21;;;;;;;7.10;5.85;;;19.60;40.20;;;;;;5094847;28;20524;-10
2022/12/04 12:57:58;;;;;;;5.50;4.88;;;19.60;40.20;;;;;;5094910;28;20048;-10
2022/12/04 13:00:25;;;;;;;7.13;5.70;;;19.60;40.20;;;;;;5094740;28;20056;-10
2022/12/04 13:03:22;;;;;;;6.50;5.80;;;19.60;40.20;;;;;;5095049;28;20051;-10
2022/12/04 13:05:52;;;;;;;6.43;5.63;;;19.60;40.20;;;;;;5094769;28;20059;-11
2022/12/04 13:08:28;;;;;;;7.45;6.63;;;19.60;40.20;;;;;;5094837;28;20415;-10
2022/12/04 13:11:02;;;;;;;7.15;5.68;;;19.60;40.10;;;;;;5094726;28;20059;-10
2022/12/04 13:13:33;;;;;;;6.75;5.60;;;19.60;40.10;;;;;;5094783;28;20081;-10
2022/12/04 13:16:08;;;;;;;5.68;4.90;;;19.60;40.00;;;;;;5094855;28;20401;-11
2022/12/04 13:19:02;;;;;;;6.13;5.53;;;19.60;40.10;;;;;;5094636;28;20048;-10
2022/12/04 13:21:42;;;;;;;7.43;5.93;;;19.60;40.10;;;;;;5094287;28;20459;-10